<?xml version="1.0" encoding="UTF-8" standalone="no" ?>
<gpx xmlns="http://www.topografix.com/GPX/1/1" xmlns:xsi="http://www.w3.org/2001/XMLSchema-instance" xsi:schemaLocation="http://www.topografix.com/GPX/1/1 http://www.topografix.com/GPX/1/1/gpx.xsd" version="1.1" creator="VisuGPX - https://www.visugpx.com">
  <metadata>
    <name>izeron 16km</name>
    <desc><![CDATA[ copier à partir de openrunner jamais fait]]></desc>
  </metadata>
  <trk>
    <name><![CDATA[--Izeron-- OR-5615778:izeron gonthier pré bourré le faz allevoux pillard]]></name>
    <trkseg>
      <trkpt lat="45.14585" lon="5.37685">
        <ele>244</ele>
        <time>2016-04-03T19:35:37Z</time>
      </trkpt>
      <trkpt lat="45.14439" lon="5.37627">
        <ele>247</ele>
        <time>2016-04-03T19:37:37Z</time>
      </trkpt>
      <trkpt lat="45.14463" lon="5.37695">
        <ele>249</ele>
        <time>2016-04-03T19:39:37Z</time>
      </trkpt>
      <trkpt lat="45.14548" lon="5.37768">
        <ele>253</ele>
        <time>2016-04-03T19:41:37Z</time>
      </trkpt>
      <trkpt lat="45.14651" lon="5.37884">
        <ele>263</ele>
        <time>2016-04-03T19:43:37Z</time>
      </trkpt>
      <trkpt lat="45.14616" lon="5.37906">
        <ele>272</ele>
        <time>2016-04-03T19:45:37Z</time>
      </trkpt>
      <trkpt lat="45.1463" lon="5.38021">
        <ele>288</ele>
        <time>2016-04-03T19:47:37Z</time>
      </trkpt>
      <trkpt lat="45.14588" lon="5.38174">
        <ele>310</ele>
        <time>2016-04-03T19:49:37Z</time>
      </trkpt>
      <trkpt lat="45.14559" lon="5.38255">
        <ele>320</ele>
        <time>2016-04-03T19:51:37Z</time>
      </trkpt>
      <trkpt lat="45.14536" lon="5.38395">
        <ele>349</ele>
        <time>2016-04-03T19:53:37Z</time>
      </trkpt>
      <trkpt lat="45.14512" lon="5.38433">
        <ele>363</ele>
        <time>2016-04-03T19:55:37Z</time>
      </trkpt>
      <trkpt lat="45.14442" lon="5.38466">
        <ele>385</ele>
        <time>2016-04-03T19:57:37Z</time>
      </trkpt>
      <trkpt lat="45.14386" lon="5.38532">
        <ele>419</ele>
        <time>2016-04-03T19:59:37Z</time>
      </trkpt>
      <trkpt lat="45.14153" lon="5.38566">
        <ele>447</ele>
        <time>2016-04-03T20:01:37Z</time>
      </trkpt>
      <trkpt lat="45.14191" lon="5.38614">
        <ele>470</ele>
        <time>2016-04-03T20:03:37Z</time>
      </trkpt>
      <trkpt lat="45.14215" lon="5.38659">
        <ele>490</ele>
        <time>2016-04-03T20:05:37Z</time>
      </trkpt>
      <trkpt lat="45.14368" lon="5.38805">
        <ele>526</ele>
        <time>2016-04-03T20:07:37Z</time>
      </trkpt>
      <trkpt lat="45.14427" lon="5.38822">
        <ele>522</ele>
        <time>2016-04-03T20:09:37Z</time>
      </trkpt>
      <trkpt lat="45.14488" lon="5.38843">
        <ele>519</ele>
        <time>2016-04-03T20:11:37Z</time>
      </trkpt>
      <trkpt lat="45.14578" lon="5.38897">
        <ele>519</ele>
        <time>2016-04-03T20:13:37Z</time>
      </trkpt>
      <trkpt lat="45.14589" lon="5.38974">
        <ele>543</ele>
        <time>2016-04-03T20:15:37Z</time>
      </trkpt>
      <trkpt lat="45.14569" lon="5.39006">
        <ele>558</ele>
        <time>2016-04-03T20:17:37Z</time>
      </trkpt>
      <trkpt lat="45.14482" lon="5.39023">
        <ele>583</ele>
        <time>2016-04-03T20:19:37Z</time>
      </trkpt>
      <trkpt lat="45.14568" lon="5.39146">
        <ele>604</ele>
        <time>2016-04-03T20:21:37Z</time>
      </trkpt>
      <trkpt lat="45.14712" lon="5.39343">
        <ele>647</ele>
        <time>2016-04-03T20:23:37Z</time>
      </trkpt>
      <trkpt lat="45.14854" lon="5.39584">
        <ele>713</ele>
        <time>2016-04-03T20:25:37Z</time>
      </trkpt>
      <trkpt lat="45.14677" lon="5.39652">
        <ele>757</ele>
        <time>2016-04-03T20:27:37Z</time>
      </trkpt>
      <trkpt lat="45.14628" lon="5.39811">
        <ele>785</ele>
        <time>2016-04-03T20:29:37Z</time>
      </trkpt>
      <trkpt lat="45.14607" lon="5.39978">
        <ele>785</ele>
        <time>2016-04-03T20:31:37Z</time>
      </trkpt>
      <trkpt lat="45.14597" lon="5.40133">
        <ele>775</ele>
        <time>2016-04-03T20:33:37Z</time>
      </trkpt>
      <trkpt lat="45.14565" lon="5.40232">
        <ele>778</ele>
        <time>2016-04-03T20:35:37Z</time>
      </trkpt>
      <trkpt lat="45.14515" lon="5.40298">
        <ele>776</ele>
        <time>2016-04-03T20:37:37Z</time>
      </trkpt>
      <trkpt lat="45.14485" lon="5.40375">
        <ele>778</ele>
        <time>2016-04-03T20:39:37Z</time>
      </trkpt>
      <trkpt lat="45.14506" lon="5.40416">
        <ele>785</ele>
        <time>2016-04-03T20:41:37Z</time>
      </trkpt>
      <trkpt lat="45.14506" lon="5.40483">
        <ele>791</ele>
        <time>2016-04-03T20:43:37Z</time>
      </trkpt>
      <trkpt lat="45.14486" lon="5.40547">
        <ele>796</ele>
        <time>2016-04-03T20:45:37Z</time>
      </trkpt>
      <trkpt lat="45.14525" lon="5.4065">
        <ele>815</ele>
        <time>2016-04-03T20:47:37Z</time>
      </trkpt>
      <trkpt lat="45.14566" lon="5.40725">
        <ele>835</ele>
        <time>2016-04-03T20:49:37Z</time>
      </trkpt>
      <trkpt lat="45.14581" lon="5.40768">
        <ele>844</ele>
        <time>2016-04-03T20:51:37Z</time>
      </trkpt>
      <trkpt lat="45.14563" lon="5.40785">
        <ele>846</ele>
        <time>2016-04-03T20:53:37Z</time>
      </trkpt>
      <trkpt lat="45.14554" lon="5.40867">
        <ele>864</ele>
        <time>2016-04-03T20:55:37Z</time>
      </trkpt>
      <trkpt lat="45.1451" lon="5.40862">
        <ele>864</ele>
        <time>2016-04-03T20:57:37Z</time>
      </trkpt>
      <trkpt lat="45.14506" lon="5.40927">
        <ele>884</ele>
        <time>2016-04-03T20:59:37Z</time>
      </trkpt>
      <trkpt lat="45.14459" lon="5.40968">
        <ele>891</ele>
        <time>2016-04-03T21:01:37Z</time>
      </trkpt>
      <trkpt lat="45.14463" lon="5.41062">
        <ele>921</ele>
        <time>2016-04-03T21:03:37Z</time>
      </trkpt>
      <trkpt lat="45.14466" lon="5.41193">
        <ele>965</ele>
        <time>2016-04-03T21:05:37Z</time>
      </trkpt>
      <trkpt lat="45.14451" lon="5.41289">
        <ele>993</ele>
        <time>2016-04-03T21:07:37Z</time>
      </trkpt>
      <trkpt lat="45.14398" lon="5.41253">
        <ele>991</ele>
        <time>2016-04-03T21:09:37Z</time>
      </trkpt>
      <trkpt lat="45.14354" lon="5.41249">
        <ele>991</ele>
        <time>2016-04-03T21:11:37Z</time>
      </trkpt>
      <trkpt lat="45.14335" lon="5.41307">
        <ele>1012</ele>
        <time>2016-04-03T21:13:37Z</time>
      </trkpt>
      <trkpt lat="45.14335" lon="5.41384">
        <ele>1035</ele>
        <time>2016-04-03T21:15:37Z</time>
      </trkpt>
      <trkpt lat="45.14318" lon="5.41435">
        <ele>1051</ele>
        <time>2016-04-03T21:17:37Z</time>
      </trkpt>
      <trkpt lat="45.14259" lon="5.4144">
        <ele>1058</ele>
        <time>2016-04-03T21:19:37Z</time>
      </trkpt>
      <trkpt lat="45.14255" lon="5.4154">
        <ele>1091</ele>
        <time>2016-04-03T21:21:37Z</time>
      </trkpt>
      <trkpt lat="45.14197" lon="5.41586">
        <ele>1107</ele>
        <time>2016-04-03T21:23:37Z</time>
      </trkpt>
      <trkpt lat="45.14168" lon="5.41598">
        <ele>1112</ele>
        <time>2016-04-03T21:25:37Z</time>
      </trkpt>
      <trkpt lat="45.14121" lon="5.41633">
        <ele>1126</ele>
        <time>2016-04-03T21:27:37Z</time>
      </trkpt>
      <trkpt lat="45.14065" lon="5.41716">
        <ele>1150</ele>
        <time>2016-04-03T21:29:37Z</time>
      </trkpt>
      <trkpt lat="45.14035" lon="5.41792">
        <ele>1164</ele>
        <time>2016-04-03T21:31:37Z</time>
      </trkpt>
      <trkpt lat="45.14003" lon="5.41837">
        <ele>1173</ele>
        <time>2016-04-03T21:33:37Z</time>
      </trkpt>
      <trkpt lat="45.13955" lon="5.41847">
        <ele>1180</ele>
        <time>2016-04-03T21:35:37Z</time>
      </trkpt>
      <trkpt lat="45.13893" lon="5.41871">
        <ele>1191</ele>
        <time>2016-04-03T21:37:37Z</time>
      </trkpt>
      <trkpt lat="45.13849" lon="5.41907">
        <ele>1204</ele>
        <time>2016-04-03T21:39:37Z</time>
      </trkpt>
      <trkpt lat="45.13819" lon="5.4194">
        <ele>1217</ele>
        <time>2016-04-03T21:41:37Z</time>
      </trkpt>
      <trkpt lat="45.13752" lon="5.41946">
        <ele>1238</ele>
        <time>2016-04-03T21:43:37Z</time>
      </trkpt>
      <trkpt lat="45.1369" lon="5.41916">
        <ele>1252</ele>
        <time>2016-04-03T21:45:37Z</time>
      </trkpt>
      <trkpt lat="45.13619" lon="5.41899">
        <ele>1267</ele>
        <time>2016-04-03T21:47:37Z</time>
      </trkpt>
      <trkpt lat="45.13569" lon="5.4189">
        <ele>1278</ele>
        <time>2016-04-03T21:49:37Z</time>
      </trkpt>
      <trkpt lat="45.13536" lon="5.4189">
        <ele>1289</ele>
        <time>2016-04-03T21:51:37Z</time>
      </trkpt>
      <trkpt lat="45.1348" lon="5.41873">
        <ele>1303</ele>
        <time>2016-04-03T21:53:37Z</time>
      </trkpt>
      <trkpt lat="45.13439" lon="5.41849">
        <ele>1312</ele>
        <time>2016-04-03T21:55:37Z</time>
      </trkpt>
      <trkpt lat="45.13377" lon="5.41839">
        <ele>1313</ele>
        <time>2016-04-03T21:57:37Z</time>
      </trkpt>
      <trkpt lat="45.13315" lon="5.41815">
        <ele>1307</ele>
        <time>2016-04-03T21:59:37Z</time>
      </trkpt>
      <trkpt lat="45.13254" lon="5.41779">
        <ele>1298</ele>
        <time>2016-04-03T22:01:37Z</time>
      </trkpt>
      <trkpt lat="45.13194" lon="5.41714">
        <ele>1294</ele>
        <time>2016-04-03T22:03:37Z</time>
      </trkpt>
      <trkpt lat="45.13144" lon="5.41641">
        <ele>1289</ele>
        <time>2016-04-03T22:05:37Z</time>
      </trkpt>
      <trkpt lat="45.13112" lon="5.41564">
        <ele>1285</ele>
        <time>2016-04-03T22:07:37Z</time>
      </trkpt>
      <trkpt lat="45.13097" lon="5.41472">
        <ele>1276</ele>
        <time>2016-04-03T22:09:37Z</time>
      </trkpt>
      <trkpt lat="45.1311" lon="5.41337">
        <ele>1241</ele>
        <time>2016-04-03T22:11:37Z</time>
      </trkpt>
      <trkpt lat="45.1303" lon="5.41317">
        <ele>1222</ele>
        <time>2016-04-03T22:13:37Z</time>
      </trkpt>
      <trkpt lat="45.12994" lon="5.41326">
        <ele>1219</ele>
        <time>2016-04-03T22:15:37Z</time>
      </trkpt>
      <trkpt lat="45.12944" lon="5.41337">
        <ele>1215</ele>
        <time>2016-04-03T22:17:37Z</time>
      </trkpt>
      <trkpt lat="45.12851" lon="5.41326">
        <ele>1216</ele>
        <time>2016-04-03T22:19:37Z</time>
      </trkpt>
      <trkpt lat="45.1275" lon="5.41334">
        <ele>1243</ele>
        <time>2016-04-03T22:21:37Z</time>
      </trkpt>
      <trkpt lat="45.12673" lon="5.41292">
        <ele>1221</ele>
        <time>2016-04-03T22:23:37Z</time>
      </trkpt>
      <trkpt lat="45.12611" lon="5.41197">
        <ele>1174</ele>
        <time>2016-04-03T22:25:37Z</time>
      </trkpt>
      <trkpt lat="45.12536" lon="5.41126">
        <ele>1152</ele>
        <time>2016-04-03T22:27:37Z</time>
      </trkpt>
      <trkpt lat="45.12452" lon="5.41051">
        <ele>1141</ele>
        <time>2016-04-03T22:29:37Z</time>
      </trkpt>
      <trkpt lat="45.12364" lon="5.40976">
        <ele>1136</ele>
        <time>2016-04-03T22:31:37Z</time>
      </trkpt>
      <trkpt lat="45.12305" lon="5.40888">
        <ele>1119</ele>
        <time>2016-04-03T22:33:37Z</time>
      </trkpt>
      <trkpt lat="45.12285" lon="5.40839">
        <ele>1111</ele>
        <time>2016-04-03T22:35:37Z</time>
      </trkpt>
      <trkpt lat="45.12232" lon="5.40783">
        <ele>1108</ele>
        <time>2016-04-03T22:37:37Z</time>
      </trkpt>
      <trkpt lat="45.12153" lon="5.40734">
        <ele>1097</ele>
        <time>2016-04-03T22:39:37Z</time>
      </trkpt>
      <trkpt lat="45.12111" lon="5.40682">
        <ele>1088</ele>
        <time>2016-04-03T22:41:37Z</time>
      </trkpt>
      <trkpt lat="45.1206" lon="5.40644">
        <ele>1082</ele>
        <time>2016-04-03T22:43:37Z</time>
      </trkpt>
      <trkpt lat="45.1199" lon="5.40573">
        <ele>1073</ele>
        <time>2016-04-03T22:45:37Z</time>
      </trkpt>
      <trkpt lat="45.11954" lon="5.40485">
        <ele>1050</ele>
        <time>2016-04-03T22:47:37Z</time>
      </trkpt>
      <trkpt lat="45.11908" lon="5.40427">
        <ele>1039</ele>
        <time>2016-04-03T22:49:37Z</time>
      </trkpt>
      <trkpt lat="45.11863" lon="5.40382">
        <ele>1033</ele>
        <time>2016-04-03T22:51:37Z</time>
      </trkpt>
      <trkpt lat="45.11858" lon="5.40309">
        <ele>1028</ele>
        <time>2016-04-03T22:53:37Z</time>
      </trkpt>
      <trkpt lat="45.11893" lon="5.40249">
        <ele>1021</ele>
        <time>2016-04-03T22:55:37Z</time>
      </trkpt>
      <trkpt lat="45.11926" lon="5.4018">
        <ele>1011</ele>
        <time>2016-04-03T22:57:37Z</time>
      </trkpt>
      <trkpt lat="45.11887" lon="5.40094">
        <ele>1011</ele>
        <time>2016-04-03T22:59:37Z</time>
      </trkpt>
      <trkpt lat="45.11829" lon="5.40008">
        <ele>1018</ele>
        <time>2016-04-03T23:01:37Z</time>
      </trkpt>
      <trkpt lat="45.11752" lon="5.39777">
        <ele>1011</ele>
        <time>2016-04-03T23:03:37Z</time>
      </trkpt>
      <trkpt lat="45.11637" lon="5.39605">
        <ele>1010</ele>
        <time>2016-04-03T23:05:37Z</time>
      </trkpt>
      <trkpt lat="45.11637" lon="5.39483">
        <ele>1008</ele>
        <time>2016-04-03T23:07:37Z</time>
      </trkpt>
      <trkpt lat="45.11596" lon="5.39281">
        <ele>989</ele>
        <time>2016-04-03T23:09:37Z</time>
      </trkpt>
      <trkpt lat="45.11599" lon="5.3909">
        <ele>958</ele>
        <time>2016-04-03T23:11:37Z</time>
      </trkpt>
      <trkpt lat="45.11622" lon="5.3894">
        <ele>947</ele>
        <time>2016-04-03T23:13:37Z</time>
      </trkpt>
      <trkpt lat="45.11663" lon="5.38796">
        <ele>944</ele>
        <time>2016-04-03T23:15:37Z</time>
      </trkpt>
      <trkpt lat="45.11687" lon="5.38727">
        <ele>944</ele>
        <time>2016-04-03T23:17:37Z</time>
      </trkpt>
      <trkpt lat="45.11678" lon="5.38637">
        <ele>939</ele>
        <time>2016-04-03T23:19:37Z</time>
      </trkpt>
      <trkpt lat="45.11666" lon="5.38556">
        <ele>937</ele>
        <time>2016-04-03T23:21:37Z</time>
      </trkpt>
      <trkpt lat="45.11631" lon="5.38657">
        <ele>924</ele>
        <time>2016-04-03T23:23:37Z</time>
      </trkpt>
      <trkpt lat="45.11604" lon="5.38609">
        <ele>913</ele>
        <time>2016-04-03T23:25:37Z</time>
      </trkpt>
      <trkpt lat="45.11564" lon="5.38536">
        <ele>896</ele>
        <time>2016-04-03T23:27:37Z</time>
      </trkpt>
      <trkpt lat="45.1151" lon="5.3844">
        <ele>867</ele>
        <time>2016-04-03T23:29:37Z</time>
      </trkpt>
      <trkpt lat="45.11474" lon="5.38339">
        <ele>847</ele>
        <time>2016-04-03T23:31:37Z</time>
      </trkpt>
      <trkpt lat="45.11457" lon="5.38311">
        <ele>838</ele>
        <time>2016-04-03T23:33:37Z</time>
      </trkpt>
      <trkpt lat="45.11452" lon="5.3824">
        <ele>827</ele>
        <time>2016-04-03T23:35:37Z</time>
      </trkpt>
      <trkpt lat="45.11472" lon="5.38148">
        <ele>814</ele>
        <time>2016-04-03T23:37:37Z</time>
      </trkpt>
      <trkpt lat="45.11536" lon="5.38071">
        <ele>803</ele>
        <time>2016-04-03T23:39:37Z</time>
      </trkpt>
      <trkpt lat="45.1162" lon="5.37991">
        <ele>799</ele>
        <time>2016-04-03T23:41:37Z</time>
      </trkpt>
      <trkpt lat="45.11648" lon="5.37918">
        <ele>790</ele>
        <time>2016-04-03T23:43:37Z</time>
      </trkpt>
      <trkpt lat="45.11693" lon="5.37867">
        <ele>788</ele>
        <time>2016-04-03T23:45:37Z</time>
      </trkpt>
      <trkpt lat="45.11723" lon="5.37764">
        <ele>774</ele>
        <time>2016-04-03T23:47:37Z</time>
      </trkpt>
      <trkpt lat="45.1174" lon="5.3768">
        <ele>756</ele>
        <time>2016-04-03T23:49:37Z</time>
      </trkpt>
      <trkpt lat="45.1177" lon="5.37652">
        <ele>753</ele>
        <time>2016-04-03T23:51:37Z</time>
      </trkpt>
      <trkpt lat="45.11808" lon="5.37691">
        <ele>776</ele>
        <time>2016-04-03T23:53:37Z</time>
      </trkpt>
      <trkpt lat="45.11914" lon="5.37723">
        <ele>808</ele>
        <time>2016-04-03T23:55:37Z</time>
      </trkpt>
      <trkpt lat="45.11979" lon="5.37753">
        <ele>814</ele>
        <time>2016-04-03T23:57:37Z</time>
      </trkpt>
      <trkpt lat="45.12028" lon="5.37813">
        <ele>820</ele>
        <time>2016-04-03T23:59:37Z</time>
      </trkpt>
      <trkpt lat="45.12067" lon="5.37809">
        <ele>815</ele>
        <time>2016-04-04T00:01:37Z</time>
      </trkpt>
      <trkpt lat="45.12119" lon="5.37824">
        <ele>809</ele>
        <time>2016-04-04T00:03:37Z</time>
      </trkpt>
      <trkpt lat="45.12148" lon="5.37893">
        <ele>816</ele>
        <time>2016-04-04T00:05:37Z</time>
      </trkpt>
      <trkpt lat="45.12231" lon="5.37918">
        <ele>804</ele>
        <time>2016-04-04T00:07:37Z</time>
      </trkpt>
      <trkpt lat="45.1227" lon="5.3787">
        <ele>774</ele>
        <time>2016-04-04T00:09:37Z</time>
      </trkpt>
      <trkpt lat="45.12296" lon="5.37925">
        <ele>778</ele>
        <time>2016-04-04T00:11:37Z</time>
      </trkpt>
      <trkpt lat="45.12302" lon="5.37996">
        <ele>798</ele>
        <time>2016-04-04T00:13:37Z</time>
      </trkpt>
      <trkpt lat="45.12338" lon="5.38041">
        <ele>797</ele>
        <time>2016-04-04T00:15:37Z</time>
      </trkpt>
      <trkpt lat="45.12387" lon="5.38101">
        <ele>799</ele>
        <time>2016-04-04T00:17:37Z</time>
      </trkpt>
      <trkpt lat="45.12429" lon="5.38165">
        <ele>803</ele>
        <time>2016-04-04T00:19:37Z</time>
      </trkpt>
      <trkpt lat="45.12411" lon="5.38195">
        <ele>812</ele>
        <time>2016-04-04T00:21:37Z</time>
      </trkpt>
      <trkpt lat="45.1237" lon="5.3821">
        <ele>823</ele>
        <time>2016-04-04T00:23:37Z</time>
      </trkpt>
      <trkpt lat="45.12323" lon="5.38219">
        <ele>833</ele>
        <time>2016-04-04T00:25:37Z</time>
      </trkpt>
      <trkpt lat="45.12326" lon="5.38255">
        <ele>841</ele>
        <time>2016-04-04T00:27:37Z</time>
      </trkpt>
      <trkpt lat="45.12376" lon="5.38305">
        <ele>841</ele>
        <time>2016-04-04T00:29:37Z</time>
      </trkpt>
      <trkpt lat="45.12434" lon="5.38341">
        <ele>834</ele>
        <time>2016-04-04T00:31:37Z</time>
      </trkpt>
      <trkpt lat="45.12487" lon="5.38371">
        <ele>824</ele>
        <time>2016-04-04T00:33:37Z</time>
      </trkpt>
      <trkpt lat="45.12524" lon="5.38371">
        <ele>814</ele>
        <time>2016-04-04T00:35:37Z</time>
      </trkpt>
      <trkpt lat="45.12547" lon="5.38414">
        <ele>812</ele>
        <time>2016-04-04T00:37:37Z</time>
      </trkpt>
      <trkpt lat="45.1257" lon="5.38478">
        <ele>809</ele>
        <time>2016-04-04T00:39:37Z</time>
      </trkpt>
      <trkpt lat="45.12591" lon="5.38566">
        <ele>797</ele>
        <time>2016-04-04T00:41:37Z</time>
      </trkpt>
      <trkpt lat="45.12614" lon="5.38639">
        <ele>755</ele>
        <time>2016-04-04T00:43:37Z</time>
      </trkpt>
      <trkpt lat="45.12609" lon="5.38725">
        <ele>766</ele>
        <time>2016-04-04T00:45:37Z</time>
      </trkpt>
      <trkpt lat="45.12626" lon="5.38796">
        <ele>759</ele>
        <time>2016-04-04T00:47:37Z</time>
      </trkpt>
      <trkpt lat="45.12639" lon="5.3877">
        <ele>742</ele>
        <time>2016-04-04T00:49:37Z</time>
      </trkpt>
      <trkpt lat="45.12656" lon="5.38723">
        <ele>712</ele>
        <time>2016-04-04T00:51:37Z</time>
      </trkpt>
      <trkpt lat="45.12683" lon="5.38676">
        <ele>682</ele>
        <time>2016-04-04T00:53:37Z</time>
      </trkpt>
      <trkpt lat="45.12674" lon="5.38599">
        <ele>668</ele>
        <time>2016-04-04T00:55:37Z</time>
      </trkpt>
      <trkpt lat="45.12691" lon="5.38539">
        <ele>648</ele>
        <time>2016-04-04T00:57:37Z</time>
      </trkpt>
      <trkpt lat="45.12713" lon="5.38496">
        <ele>606</ele>
        <time>2016-04-04T00:59:37Z</time>
      </trkpt>
      <trkpt lat="45.12741" lon="5.38485">
        <ele>553</ele>
        <time>2016-04-04T01:01:37Z</time>
      </trkpt>
      <trkpt lat="45.12814" lon="5.38506">
        <ele>637</ele>
        <time>2016-04-04T01:03:37Z</time>
      </trkpt>
      <trkpt lat="45.12854" lon="5.38539">
        <ele>708</ele>
        <time>2016-04-04T01:05:37Z</time>
      </trkpt>
      <trkpt lat="45.12906" lon="5.38614">
        <ele>771</ele>
        <time>2016-04-04T01:07:37Z</time>
      </trkpt>
      <trkpt lat="45.12938" lon="5.38693">
        <ele>787</ele>
        <time>2016-04-04T01:09:37Z</time>
      </trkpt>
      <trkpt lat="45.13" lon="5.38757">
        <ele>782</ele>
        <time>2016-04-04T01:11:37Z</time>
      </trkpt>
      <trkpt lat="45.13074" lon="5.38826">
        <ele>771</ele>
        <time>2016-04-04T01:13:37Z</time>
      </trkpt>
      <trkpt lat="45.13142" lon="5.38938">
        <ele>774</ele>
        <time>2016-04-04T01:15:37Z</time>
      </trkpt>
      <trkpt lat="45.13172" lon="5.39047">
        <ele>789</ele>
        <time>2016-04-04T01:17:37Z</time>
      </trkpt>
      <trkpt lat="45.13198" lon="5.39069">
        <ele>783</ele>
        <time>2016-04-04T01:19:37Z</time>
      </trkpt>
      <trkpt lat="45.13198" lon="5.38929">
        <ele>752</ele>
        <time>2016-04-04T01:21:37Z</time>
      </trkpt>
      <trkpt lat="45.13206" lon="5.38828">
        <ele>727</ele>
        <time>2016-04-04T01:23:37Z</time>
      </trkpt>
      <trkpt lat="45.13203" lon="5.38757">
        <ele>717</ele>
        <time>2016-04-04T01:25:37Z</time>
      </trkpt>
      <trkpt lat="45.1325" lon="5.38768">
        <ele>711</ele>
        <time>2016-04-04T01:27:37Z</time>
      </trkpt>
      <trkpt lat="45.13277" lon="5.38745">
        <ele>705</ele>
        <time>2016-04-04T01:29:37Z</time>
      </trkpt>
      <trkpt lat="45.13286" lon="5.38667">
        <ele>688</ele>
        <time>2016-04-04T01:31:37Z</time>
      </trkpt>
      <trkpt lat="45.1334" lon="5.38642">
        <ele>656</ele>
        <time>2016-04-04T01:33:37Z</time>
      </trkpt>
      <trkpt lat="45.13293" lon="5.38584">
        <ele>639</ele>
        <time>2016-04-04T01:35:37Z</time>
      </trkpt>
      <trkpt lat="45.13242" lon="5.38513">
        <ele>617</ele>
        <time>2016-04-04T01:37:37Z</time>
      </trkpt>
      <trkpt lat="45.1319" lon="5.38453">
        <ele>592</ele>
        <time>2016-04-04T01:39:37Z</time>
      </trkpt>
      <trkpt lat="45.13122" lon="5.38427">
        <ele>599</ele>
        <time>2016-04-04T01:41:37Z</time>
      </trkpt>
      <trkpt lat="45.13075" lon="5.38393">
        <ele>599</ele>
        <time>2016-04-04T01:43:37Z</time>
      </trkpt>
      <trkpt lat="45.13095" lon="5.38375">
        <ele>584</ele>
        <time>2016-04-04T01:45:37Z</time>
      </trkpt>
      <trkpt lat="45.13053" lon="5.3836">
        <ele>586</ele>
        <time>2016-04-04T01:47:37Z</time>
      </trkpt>
      <trkpt lat="45.13027" lon="5.38326">
        <ele>567</ele>
        <time>2016-04-04T01:49:37Z</time>
      </trkpt>
      <trkpt lat="45.1296" lon="5.38287">
        <ele>517</ele>
        <time>2016-04-04T01:51:37Z</time>
      </trkpt>
      <trkpt lat="45.12986" lon="5.38268">
        <ele>517</ele>
        <time>2016-04-04T01:53:37Z</time>
      </trkpt>
      <trkpt lat="45.13027" lon="5.38268">
        <ele>526</ele>
        <time>2016-04-04T01:55:37Z</time>
      </trkpt>
      <trkpt lat="45.13091" lon="5.38249">
        <ele>515</ele>
        <time>2016-04-04T01:57:37Z</time>
      </trkpt>
      <trkpt lat="45.13128" lon="5.38236">
        <ele>500</ele>
        <time>2016-04-04T01:59:37Z</time>
      </trkpt>
      <trkpt lat="45.13213" lon="5.38236">
        <ele>482</ele>
        <time>2016-04-04T02:01:37Z</time>
      </trkpt>
      <trkpt lat="45.13299" lon="5.38236">
        <ele>467</ele>
        <time>2016-04-04T02:03:37Z</time>
      </trkpt>
      <trkpt lat="45.13389" lon="5.38212">
        <ele>446</ele>
        <time>2016-04-04T02:05:37Z</time>
      </trkpt>
      <trkpt lat="45.13472" lon="5.38199">
        <ele>426</ele>
        <time>2016-04-04T02:07:37Z</time>
      </trkpt>
      <trkpt lat="45.1358" lon="5.38184">
        <ele>409</ele>
        <time>2016-04-04T02:09:37Z</time>
      </trkpt>
      <trkpt lat="45.13679" lon="5.38182">
        <ele>395</ele>
        <time>2016-04-04T02:11:37Z</time>
      </trkpt>
      <trkpt lat="45.13767" lon="5.38202">
        <ele>383</ele>
        <time>2016-04-04T02:13:37Z</time>
      </trkpt>
      <trkpt lat="45.13852" lon="5.3821">
        <ele>366</ele>
        <time>2016-04-04T02:15:37Z</time>
      </trkpt>
      <trkpt lat="45.13869" lon="5.38296">
        <ele>374</ele>
        <time>2016-04-04T02:17:37Z</time>
      </trkpt>
      <trkpt lat="45.13884" lon="5.38131">
        <ele>350</ele>
        <time>2016-04-04T02:19:37Z</time>
      </trkpt>
      <trkpt lat="45.1397" lon="5.38161">
        <ele>341</ele>
        <time>2016-04-04T02:21:37Z</time>
      </trkpt>
      <trkpt lat="45.14065" lon="5.38015">
        <ele>320</ele>
        <time>2016-04-04T02:23:37Z</time>
      </trkpt>
      <trkpt lat="45.14105" lon="5.37912">
        <ele>316</ele>
        <time>2016-04-04T02:25:37Z</time>
      </trkpt>
      <trkpt lat="45.14164" lon="5.37809">
        <ele>315</ele>
        <time>2016-04-04T02:27:37Z</time>
      </trkpt>
      <trkpt lat="45.14252" lon="5.37719">
        <ele>296</ele>
        <time>2016-04-04T02:29:37Z</time>
      </trkpt>
      <trkpt lat="45.1433" lon="5.37635">
        <ele>272</ele>
        <time>2016-04-04T02:31:37Z</time>
      </trkpt>
      <trkpt lat="45.14348" lon="5.3759">
        <ele>265</ele>
        <time>2016-04-04T02:33:37Z</time>
      </trkpt>
      <trkpt lat="45.14394" lon="5.37646">
        <ele>256</ele>
        <time>2016-04-04T02:35:37Z</time>
      </trkpt>
      <trkpt lat="45.14426" lon="5.37663">
        <ele>251</ele>
        <time>2016-04-04T02:37:37Z</time>
      </trkpt>
      <trkpt lat="45.14445" lon="5.3762">
        <ele>246</ele>
        <time>2016-04-04T02:39:37Z</time>
      </trkpt>
      <trkpt lat="45.14588" lon="5.3768">
        <ele>243</ele>
        <time>2016-04-04T02:41:37Z</time>
      </trkpt>
    </trkseg>
  </trk>
</gpx>